sensor_id;sensor_type;location;lat;lon;timestamp;pressure;altitude;pressure_sealevel;temperature;humidity
21011;BME280;10663;42.714;23.274;2023-04-01T00:01:21;93908.72;;;12.26;57.71
21011;BME280;10663;42.714;23.274;2023-04-01T00:02:52;93909.13;;;12.20;58.41
21011;BME280;10663;42.714;23.274;2023-04-01T00:04:23;93921.84;;;11.90;58.78
21011;BME280;10663;42.714;23.274;2023-04-01T00:05:55;93929.59;;;11.68;60.04
21011;BME280;10663;42.714;23.274;2023-04-01T00:07:27;93930.94;;;11.66;60.04
21011;BME280;10663;42.714;23.274;2023-04-01T00:08:57;93925.31;;;11.53;60.95
21011;BME280;10663;42.714;23.274;2023-04-01T00:10:28;93933.16;;;11.45;61.19
21011;BME280;10663;42.714;23.274;2023-04-01T00:11:59;93930.50;;;11.26;62.05
21011;BME280;10663;42.714;23.274;2023-04-01T00:13:30;93931.44;;;11.35;62.32
21011;BME280;10663;42.714;23.274;2023-04-01T00:15:01;93933.34;;;11.11;62.63
21011;BME280;10663;42.714;23.274;2023-04-01T00:16:32;93926.94;;;11.17;62.71
21011;BME280;10663;42.714;23.274;2023-04-01T00:18:04;93926.63;;;11.00;63.27
21011;BME280;10663;42.714;23.274;2023-04-01T00:19:35;93933.06;;;11.12;62.68
21011;BME280;10663;42.714;23.274;2023-04-01T00:21:07;93925.25;;;11.21;62.41
21011;BME280;10663;42.714;23.274;2023-04-01T00:22:38;93916.59;;;11.34;62.17
21011;BME280;10663;42.714;23.274;2023-04-01T00:24:09;93920.59;;;11.50;61.63
21011;BME280;10663;42.714;23.274;2023-04-01T00:25:40;93918.44;;;11.52;61.08
21011;BME280;10663;42.714;23.274;2023-04-01T00:27:11;93910.19;;;11.54;61.22
21011;BME280;10663;42.714;23.274;2023-04-01T00:28:42;93909.03;;;11.60;60.89
21011;BME280;10663;42.714;23.274;2023-04-01T00:30:13;93905.66;;;11.73;60.47
21011;BME280;10663;42.714;23.274;2023-04-01T00:31:44;93913.69;;;11.68;60.72
21011;BME280;10663;42.714;23.274;2023-04-01T00:33:16;93907.41;;;11.45;61.00
21011;BME280;10663;42.714;23.274;2023-04-01T00:34:50;93905.88;;;11.58;61.43
21011;BME280;10663;42.714;23.274;2023-04-01T00:36:22;93916.31;;;11.68;61.04
21011;BME280;10663;42.714;23.274;2023-04-01T00:37:53;93914.31;;;11.46;61.36
21011;BME280;10663;42.714;23.274;2023-04-01T00:39:28;93907.50;;;11.40;62.08
21011;BME280;10663;42.714;23.274;2023-04-01T00:40:59;93907.56;;;11.54;61.73
21011;BME280;10663;42.714;23.274;2023-04-01T00:42:31;93894.41;;;11.62;61.16
21011;BME280;10663;42.714;23.274;2023-04-01T00:44:17;93889.75;;;11.73;61.24
21011;BME280;10663;42.714;23.274;2023-04-01T00:45:49;93885.94;;;11.79;60.57
21011;BME280;10663;42.714;23.274;2023-04-01T00:47:22;93890.41;;;11.65;61.27
21011;BME280;10663;42.714;23.274;2023-04-01T00:48:56;93884.78;;;11.67;61.18
21011;BME280;10663;42.714;23.274;2023-04-01T00:50:28;93887.16;;;11.68;61.51
21011;BME280;10663;42.714;23.274;2023-04-01T00:52:02;93885.69;;;11.62;62.30
21011;BME280;10663;42.714;23.274;2023-04-01T00:53:37;93884.50;;;11.36;63.29
21011;BME280;10663;42.714;23.274;2023-04-01T00:55:10;93879.63;;;11.43;62.79
21011;BME280;10663;42.714;23.274;2023-04-01T00:56:54;93871.94;;;11.41;62.81
21011;BME280;10663;42.714;23.274;2023-04-01T00:58:29;93869.25;;;11.60;62.43
21011;BME280;10663;42.714;23.274;2023-04-01T01:00:06;93866.72;;;11.55;62.45
21011;BME280;10663;42.714;23.274;2023-04-01T01:01:40;93858.81;;;11.50;62.50
21011;BME280;10663;42.714;23.274;2023-04-01T01:03:11;93869.53;;;11.45;62.73
21011;BME280;10663;42.714;23.274;2023-04-01T01:04:43;93853.00;;;11.48;63.04
21011;BME280;10663;42.714;23.274;2023-04-01T01:06:26;93856.16;;;11.50;62.97
21011;BME280;10663;42.714;23.274;2023-04-01T01:08:13;93858.78;;;11.36;63.33
21011;BME280;10663;42.714;23.274;2023-04-01T01:10:12;93846.34;;;11.37;62.72
21011;BME280;10663;42.714;23.274;2023-04-01T01:12:05;93845.31;;;11.33;63.67
21011;BME280;10663;42.714;23.274;2023-04-01T01:13:59;93845.75;;;11.21;64.59
21011;BME280;10663;42.714;23.274;2023-04-01T01:15:46;93844.34;;;11.29;64.00
21011;BME280;10663;42.714;23.274;2023-04-01T01:17:35;93842.78;;;11.41;63.65
21011;BME280;10663;42.714;23.274;2023-04-01T01:24:53;93837.94;;;11.62;62.70
21011;BME280;10663;42.714;23.274;2023-04-01T01:26:46;93827.53;;;11.66;62.79
21011;BME280;10663;42.714;23.274;2023-04-01T01:30:42;93810.34;;;11.63;62.72
21011;BME280;10663;42.714;23.274;2023-04-01T01:36:53;93820.41;;;11.47;63.52
21011;BME280;10663;42.714;23.274;2023-04-01T01:38:28;93819.66;;;11.47;63.47
21011;BME280;10663;42.714;23.274;2023-04-01T01:40:07;93817.47;;;11.49;63.58
21011;BME280;10663;42.714;23.274;2023-04-01T01:41:42;93819.94;;;11.45;63.61
21011;BME280;10663;42.714;23.274;2023-04-01T01:43:16;93827.63;;;11.47;63.46
21011;BME280;10663;42.714;23.274;2023-04-01T01:44:49;93816.50;;;11.45;63.94
21011;BME280;10663;42.714;23.274;2023-04-01T01:46:24;93823.66;;;11.44;63.99
21011;BME280;10663;42.714;23.274;2023-04-01T01:47:56;93820.06;;;11.54;63.31
21011;BME280;10663;42.714;23.274;2023-04-01T01:49:30;93815.72;;;11.58;63.33
21011;BME280;10663;42.714;23.274;2023-04-01T01:51:05;93818.94;;;11.41;63.92
21011;BME280;10663;42.714;23.274;2023-04-01T01:52:36;93817.41;;;11.54;63.41
21011;BME280;10663;42.714;23.274;2023-04-01T01:54:12;93823.69;;;11.58;63.67
21011;BME280;10663;42.714;23.274;2023-04-01T01:55:45;93817.31;;;11.59;63.16
21011;BME280;10663;42.714;23.274;2023-04-01T01:57:20;93824.47;;;11.58;63.16
21011;BME280;10663;42.714;23.274;2023-04-01T01:59:03;93816.44;;;11.63;63.22
21011;BME280;10663;42.714;23.274;2023-04-01T02:00:37;93807.41;;;11.65;62.92
21011;BME280;10663;42.714;23.274;2023-04-01T02:02:10;93810.75;;;11.70;62.92
21011;BME280;10663;42.714;23.274;2023-04-01T02:03:44;93812.41;;;11.66;62.81
21011;BME280;10663;42.714;23.274;2023-04-01T02:05:22;93814.69;;;11.73;62.74
21011;BME280;10663;42.714;23.274;2023-04-01T02:07:02;93807.09;;;11.66;62.93
21011;BME280;10663;42.714;23.274;2023-04-01T02:08:45;93798.06;;;11.53;63.26
21011;BME280;10663;42.714;23.274;2023-04-01T02:10:18;93790.41;;;11.52;63.50
21011;BME280;10663;42.714;23.274;2023-04-01T02:11:59;93790.00;;;11.58;63.61
21011;BME280;10663;42.714;23.274;2023-04-01T02:13:48;93793.84;;;11.52;64.62
21011;BME280;10663;42.714;23.274;2023-04-01T02:15:21;93798.44;;;11.47;64.24
21011;BME280;10663;42.714;23.274;2023-04-01T02:17:02;93801.38;;;11.45;64.09
21011;BME280;10663;42.714;23.274;2023-04-01T02:18:36;93791.25;;;11.47;63.84
21011;BME280;10663;42.714;23.274;2023-04-01T02:20:15;93787.06;;;11.46;64.08
21011;BME280;10663;42.714;23.274;2023-04-01T02:21:47;93789.59;;;11.51;64.01
21011;BME280;10663;42.714;23.274;2023-04-01T02:23:18;93782.34;;;11.57;63.68
21011;BME280;10663;42.714;23.274;2023-04-01T02:24:53;93791.50;;;11.65;63.30
21011;BME280;10663;42.714;23.274;2023-04-01T02:26:25;93796.41;;;11.71;62.66
21011;BME280;10663;42.714;23.274;2023-04-01T02:27:58;93789.47;;;11.75;62.10
21011;BME280;10663;42.714;23.274;2023-04-01T02:29:31;93785.72;;;11.76;62.38
21011;BME280;10663;42.714;23.274;2023-04-01T02:31:03;93794.19;;;11.78;62.36
21011;BME280;10663;42.714;23.274;2023-04-01T02:32:35;93795.19;;;11.82;62.18
21011;BME280;10663;42.714;23.274;2023-04-01T02:34:08;93791.47;;;11.83;61.92
21011;BME280;10663;42.714;23.274;2023-04-01T02:35:40;93798.91;;;11.81;62.39
21011;BME280;10663;42.714;23.274;2023-04-01T02:37:12;93804.34;;;11.57;63.22
21011;BME280;10663;42.714;23.274;2023-04-01T02:38:45;93804.66;;;11.56;63.17
21011;BME280;10663;42.714;23.274;2023-04-01T02:40:17;93800.19;;;11.38;64.05
21011;BME280;10663;42.714;23.274;2023-04-01T02:41:49;93802.69;;;11.29;64.44
21011;BME280;10663;42.714;23.274;2023-04-01T02:43:19;93810.53;;;11.20;64.45
21011;BME280;10663;42.714;23.274;2023-04-01T02:44:51;93814.44;;;11.42;64.38
21011;BME280;10663;42.714;23.274;2023-04-01T02:46:22;93807.78;;;11.58;63.40
21011;BME280;10663;42.714;23.274;2023-04-01T02:47:53;93805.34;;;11.29;64.52
21011;BME280;10663;42.714;23.274;2023-04-01T02:49:24;93824.91;;;11.33;65.10
21011;BME280;10663;42.714;23.274;2023-04-01T02:50:55;93828.97;;;11.44;64.13
21011;BME280;10663;42.714;23.274;2023-04-01T02:52:27;93820.28;;;11.39;64.32
21011;BME280;10663;42.714;23.274;2023-04-01T02:53:59;93815.66;;;11.31;64.37
21011;BME280;10663;42.714;23.274;2023-04-01T02:55:30;93816.44;;;11.17;64.26
21011;BME280;10663;42.714;23.274;2023-04-01T02:57:01;93823.44;;;11.27;64.29
21011;BME280;10663;42.714;23.274;2023-04-01T02:58:32;93810.34;;;11.17;64.95
21011;BME280;10663;42.714;23.274;2023-04-01T03:00:03;93832.75;;;11.06;64.22
21011;BME280;10663;42.714;23.274;2023-04-01T03:01:35;93828.53;;;11.05;65.40
21011;BME280;10663;42.714;23.274;2023-04-01T03:03:06;93829.25;;;11.10;65.13
21011;BME280;10663;42.714;23.274;2023-04-01T03:04:37;93833.63;;;11.01;64.77
21011;BME280;10663;42.714;23.274;2023-04-01T03:06:13;93849.66;;;11.10;64.81
21011;BME280;10663;42.714;23.274;2023-04-01T03:07:45;93829.75;;;11.12;64.35
21011;BME280;10663;42.714;23.274;2023-04-01T03:09:16;93835.63;;;11.09;64.00
21011;BME280;10663;42.714;23.274;2023-04-01T03:10:47;93848.78;;;11.14;65.13
21011;BME280;10663;42.714;23.274;2023-04-01T03:12:18;93845.63;;;11.12;64.72
21011;BME280;10663;42.714;23.274;2023-04-01T03:13:54;93854.66;;;11.11;65.57
21011;BME280;10663;42.714;23.274;2023-04-01T03:15:25;93841.88;;;11.00;65.53
21011;BME280;10663;42.714;23.274;2023-04-01T03:16:56;93839.44;;;10.84;65.69
21011;BME280;10663;42.714;23.274;2023-04-01T03:18:27;93838.94;;;10.82;65.22
21011;BME280;10663;42.714;23.274;2023-04-01T03:19:58;93853.25;;;10.81;66.13
21011;BME280;10663;42.714;23.274;2023-04-01T03:21:29;93856.19;;;10.61;66.98
21011;BME280;10663;42.714;23.274;2023-04-01T03:23:00;93842.00;;;10.71;66.00
21011;BME280;10663;42.714;23.274;2023-04-01T03:24:31;93848.09;;;10.90;62.73
21011;BME280;10663;42.714;23.274;2023-04-01T03:26:02;93845.56;;;11.17;62.59
21011;BME280;10663;42.714;23.274;2023-04-01T03:27:34;93843.44;;;11.19;63.09
21011;BME280;10663;42.714;23.274;2023-04-01T03:29:08;93839.69;;;11.20;63.58
21011;BME280;10663;42.714;23.274;2023-04-01T03:30:39;93839.06;;;11.10;64.44
21011;BME280;10663;42.714;23.274;2023-04-01T03:32:10;93839.91;;;11.24;61.94
21011;BME280;10663;42.714;23.274;2023-04-01T03:33:42;93845.25;;;11.38;61.76
21011;BME280;10663;42.714;23.274;2023-04-01T03:35:12;93839.03;;;11.29;62.86
21011;BME280;10663;42.714;23.274;2023-04-01T03:36:43;93824.53;;;11.40;61.87
21011;BME280;10663;42.714;23.274;2023-04-01T03:38:15;93824.66;;;11.48;61.82
21011;BME280;10663;42.714;23.274;2023-04-01T03:39:46;93815.72;;;11.44;62.96
21011;BME280;10663;42.714;23.274;2023-04-01T03:41:17;93805.72;;;11.55;62.02
21011;BME280;10663;42.714;23.274;2023-04-01T03:42:49;93796.03;;;11.64;62.13
21011;BME280;10663;42.714;23.274;2023-04-01T03:44:20;93783.06;;;11.76;60.50
21011;BME280;10663;42.714;23.274;2023-04-01T03:45:55;93771.88;;;11.79;61.06
21011;BME280;10663;42.714;23.274;2023-04-01T03:47:28;93762.66;;;11.90;59.83
21011;BME280;10663;42.714;23.274;2023-04-01T03:48:59;93754.97;;;11.75;60.82
21011;BME280;10663;42.714;23.274;2023-04-01T03:50:30;93757.84;;;11.79;61.59
21011;BME280;10663;42.714;23.274;2023-04-01T03:52:01;93759.50;;;11.75;63.42
21011;BME280;10663;42.714;23.274;2023-04-01T03:53:32;93760.56;;;11.60;64.28
21011;BME280;10663;42.714;23.274;2023-04-01T03:55:06;93758.59;;;11.52;64.19
21011;BME280;10663;42.714;23.274;2023-04-01T03:56:37;93746.97;;;11.34;65.47
21011;BME280;10663;42.714;23.274;2023-04-01T03:58:09;93741.63;;;11.20;66.13
21011;BME280;10663;42.714;23.274;2023-04-01T03:59:40;93728.88;;;11.22;66.97
21011;BME280;10663;42.714;23.274;2023-04-01T04:01:19;93725.94;;;11.24;67.30
21011;BME280;10663;42.714;23.274;2023-04-01T04:02:57;93726.63;;;11.30;67.30
21011;BME280;10663;42.714;23.274;2023-04-01T04:04:34;93726.06;;;11.33;67.35
21011;BME280;10663;42.714;23.274;2023-04-01T04:06:05;93723.13;;;11.34;66.49
21011;BME280;10663;42.714;23.274;2023-04-01T04:07:36;93724.78;;;11.30;67.79
21011;BME280;10663;42.714;23.274;2023-04-01T04:09:11;93720.94;;;11.22;68.21
21011;BME280;10663;42.714;23.274;2023-04-01T04:10:43;93714.28;;;11.25;68.06
21011;BME280;10663;42.714;23.274;2023-04-01T04:12:14;93718.00;;;11.24;67.89
21011;BME280;10663;42.714;23.274;2023-04-01T04:13:45;93721.31;;;11.16;68.59
21011;BME280;10663;42.714;23.274;2023-04-01T04:15:16;93709.94;;;11.15;68.57
21011;BME280;10663;42.714;23.274;2023-04-01T04:16:48;93707.41;;;11.10;68.67
21011;BME280;10663;42.714;23.274;2023-04-01T04:18:20;93705.22;;;11.12;67.98
21011;BME280;10663;42.714;23.274;2023-04-01T04:19:51;93700.19;;;11.11;68.05
21011;BME280;10663;42.714;23.274;2023-04-01T04:21:22;93691.25;;;10.93;66.11
21011;BME280;10663;42.714;23.274;2023-04-01T04:22:52;93693.59;;;10.95;65.97
21011;BME280;10663;42.714;23.274;2023-04-01T04:24:24;93692.41;;;10.87;66.39
21011;BME280;10663;42.714;23.274;2023-04-01T04:26:06;93702.19;;;10.73;67.45
21011;BME280;10663;42.714;23.274;2023-04-01T04:27:39;93693.78;;;10.84;67.54
21011;BME280;10663;42.714;23.274;2023-04-01T04:29:15;93691.53;;;10.59;68.49
21011;BME280;10663;42.714;23.274;2023-04-01T04:30:47;93694.84;;;10.83;68.39
21011;BME280;10663;42.714;23.274;2023-04-01T04:32:18;93688.31;;;10.95;67.12
21011;BME280;10663;42.714;23.274;2023-04-01T04:33:49;93693.88;;;10.79;67.42
21011;BME280;10663;42.714;23.274;2023-04-01T04:35:20;93692.69;;;10.85;68.33
21011;BME280;10663;42.714;23.274;2023-04-01T04:36:51;93684.88;;;10.94;67.88
21011;BME280;10663;42.714;23.274;2023-04-01T04:38:23;93687.63;;;10.89;68.71
21011;BME280;10663;42.714;23.274;2023-04-01T04:39:55;93674.56;;;10.93;68.57
21011;BME280;10663;42.714;23.274;2023-04-01T04:41:26;93676.81;;;10.85;69.75
21011;BME280;10663;42.714;23.274;2023-04-01T04:42:57;93676.44;;;10.92;69.13
21011;BME280;10663;42.714;23.274;2023-04-01T04:44:28;93674.16;;;10.85;68.67
21011;BME280;10663;42.714;23.274;2023-04-01T04:45:59;93684.75;;;10.85;68.34
21011;BME280;10663;42.714;23.274;2023-04-01T04:47:30;93679.38;;;10.91;68.13
21011;BME280;10663;42.714;23.274;2023-04-01T04:49:01;93670.16;;;11.02;68.25
21011;BME280;10663;42.714;23.274;2023-04-01T04:50:32;93663.31;;;11.01;68.15
21011;BME280;10663;42.714;23.274;2023-04-01T04:52:03;93656.63;;;11.03;68.57
21011;BME280;10663;42.714;23.274;2023-04-01T04:53:37;93652.31;;;10.94;68.63
21011;BME280;10663;42.714;23.274;2023-04-01T04:55:08;93654.28;;;11.02;68.91
21011;BME280;10663;42.714;23.274;2023-04-01T04:56:39;93661.34;;;11.06;67.98
21011;BME280;10663;42.714;23.274;2023-04-01T04:58:13;93654.19;;;11.07;67.61
21011;BME280;10663;42.714;23.274;2023-04-01T04:59:46;93656.69;;;10.84;67.87
21011;BME280;10663;42.714;23.274;2023-04-01T05:01:28;93660.66;;;11.01;68.05
21011;BME280;10663;42.714;23.274;2023-04-01T05:02:59;93660.66;;;11.01;68.00
21011;BME280;10663;42.714;23.274;2023-04-01T05:04:34;93654.41;;;11.10;68.02
21011;BME280;10663;42.714;23.274;2023-04-01T05:06:06;93647.53;;;11.09;67.53
21011;BME280;10663;42.714;23.274;2023-04-01T05:07:38;93653.97;;;11.03;67.54
21011;BME280;10663;42.714;23.274;2023-04-01T05:09:09;93649.19;;;11.05;67.04
21011;BME280;10663;42.714;23.274;2023-04-01T05:10:40;93641.16;;;11.10;66.92
21011;BME280;10663;42.714;23.274;2023-04-01T05:12:11;93632.31;;;11.01;67.74
21011;BME280;10663;42.714;23.274;2023-04-01T05:14:16;93630.81;;;10.95;67.69
21011;BME280;10663;42.714;23.274;2023-04-01T05:15:55;93622.00;;;11.00;67.43
21011;BME280;10663;42.714;23.274;2023-04-01T05:17:26;93624.28;;;11.06;67.10
21011;BME280;10663;42.714;23.274;2023-04-01T05:18:58;93619.34;;;11.13;67.07
21011;BME280;10663;42.714;23.274;2023-04-01T05:20:29;93619.28;;;11.18;67.29
21011;BME280;10663;42.714;23.274;2023-04-01T05:22:00;93615.22;;;11.21;66.32
21011;BME280;10663;42.714;23.274;2023-04-01T05:23:31;93614.53;;;11.29;65.74
21011;BME280;10663;42.714;23.274;2023-04-01T05:25:03;93624.06;;;11.44;65.47
21011;BME280;10663;42.714;23.274;2023-04-01T05:26:34;93622.38;;;11.48;65.27
21011;BME280;10663;42.714;23.274;2023-04-01T05:28:05;93617.09;;;11.48;65.34
21011;BME280;10663;42.714;23.274;2023-04-01T05:29:37;93621.72;;;11.42;65.27
21011;BME280;10663;42.714;23.274;2023-04-01T05:31:11;93624.06;;;11.44;64.76
21011;BME280;10663;42.714;23.274;2023-04-01T05:32:45;93627.47;;;11.72;62.77
21011;BME280;10663;42.714;23.274;2023-04-01T05:34:17;93619.13;;;11.92;61.36
21011;BME280;10663;42.714;23.274;2023-04-01T05:35:48;93621.53;;;12.02;62.85
21011;BME280;10663;42.714;23.274;2023-04-01T05:37:19;93615.75;;;12.22;62.13
21011;BME280;10663;42.714;23.274;2023-04-01T05:38:50;93625.41;;;12.41;60.29
21011;BME280;10663;42.714;23.274;2023-04-01T05:40:23;93620.06;;;12.54;59.43
21011;BME280;10663;42.714;23.274;2023-04-01T05:41:54;93627.19;;;12.45;59.70
21011;BME280;10663;42.714;23.274;2023-04-01T05:43:25;93617.09;;;12.56;59.87
21011;BME280;10663;42.714;23.274;2023-04-01T05:44:58;93611.72;;;12.69;59.64
21011;BME280;10663;42.714;23.274;2023-04-01T05:46:48;93607.75;;;12.89;57.96
21011;BME280;10663;42.714;23.274;2023-04-01T05:48:23;93606.56;;;13.04;58.04
21011;BME280;10663;42.714;23.274;2023-04-01T05:49:54;93594.69;;;13.01;57.29
21011;BME280;10663;42.714;23.274;2023-04-01T05:51:26;93597.94;;;12.98;57.67
21011;BME280;10663;42.714;23.274;2023-04-01T05:52:56;93589.38;;;13.41;57.21
21011;BME280;10663;42.714;23.274;2023-04-01T05:54:27;93590.34;;;13.45;56.60
21011;BME280;10663;42.714;23.274;2023-04-01T05:56:02;93593.22;;;13.83;55.53
21011;BME280;10663;42.714;23.274;2023-04-01T05:57:35;93597.78;;;14.00;54.88
21011;BME280;10663;42.714;23.274;2023-04-01T05:59:10;93590.28;;;14.45;53.77
21011;BME280;10663;42.714;23.274;2023-04-01T06:00:41;93580.69;;;14.52;53.02
21011;BME280;10663;42.714;23.274;2023-04-01T06:02:14;93588.84;;;14.56;52.85
21011;BME280;10663;42.714;23.274;2023-04-01T06:03:46;93601.66;;;14.80;52.47
21011;BME280;10663;42.714;23.274;2023-04-01T06:05:21;93601.44;;;15.02;52.19
21011;BME280;10663;42.714;23.274;2023-04-01T06:06:52;93599.16;;;15.21;51.53
21011;BME280;10663;42.714;23.274;2023-04-01T06:08:24;93601.06;;;15.50;50.55
21011;BME280;10663;42.714;23.274;2023-04-01T06:09:55;93591.09;;;15.68;49.89
21011;BME280;10663;42.714;23.274;2023-04-01T06:11:37;93590.72;;;15.49;49.89
21011;BME280;10663;42.714;23.274;2023-04-01T06:13:30;93595.00;;;14.94;51.17
21011;BME280;10663;42.714;23.274;2023-04-01T06:15:42;93601.00;;;15.67;49.59
21011;BME280;10663;42.714;23.274;2023-04-01T06:21:45;93587.66;;;15.38;49.12
21011;BME280;10663;42.714;23.274;2023-04-01T06:23:34;93599.84;;;15.39;48.56
21011;BME280;10663;42.714;23.274;2023-04-01T06:31:05;93586.66;;;15.43;47.84
21011;BME280;10663;42.714;23.274;2023-04-01T06:38:00;93583.97;;;15.51;47.19
21011;BME280;10663;42.714;23.274;2023-04-01T06:39:42;93587.09;;;15.53;47.15
21011;BME280;10663;42.714;23.274;2023-04-01T06:45:40;93579.84;;;15.62;47.36
21011;BME280;10663;42.714;23.274;2023-04-01T06:50:05;93564.09;;;15.69;46.54
21011;BME280;10663;42.714;23.274;2023-04-01T06:52:10;93549.97;;;15.69;46.36
21011;BME280;10663;42.714;23.274;2023-04-01T06:54:47;93551.94;;;15.51;46.21
21011;BME280;10663;42.714;23.274;2023-04-01T06:56:40;93534.72;;;15.40;46.56
21011;BME280;10663;42.714;23.274;2023-04-01T06:58:24;93540.53;;;15.42;46.73
21011;BME280;10663;42.714;23.274;2023-04-01T06:59:59;93548.94;;;15.23;46.88
21011;BME280;10663;42.714;23.274;2023-04-01T07:01:55;93539.34;;;15.02;47.12
21011;BME280;10663;42.714;23.274;2023-04-01T07:03:36;93555.75;;;15.12;47.00
21011;BME280;10663;42.714;23.274;2023-04-01T07:05:11;93561.88;;;15.04;47.29
21011;BME280;10663;42.714;23.274;2023-04-01T07:06:53;93569.03;;;15.21;46.88
21011;BME280;10663;42.714;23.274;2023-04-01T07:08:27;93553.56;;;15.06;47.79
21011;BME280;10663;42.714;23.274;2023-04-01T07:10:00;93545.97;;;15.25;47.56
21011;BME280;10663;42.714;23.274;2023-04-01T07:11:35;93543.28;;;15.25;47.32
21011;BME280;10663;42.714;23.274;2023-04-01T07:13:45;93540.34;;;15.56;46.77
21011;BME280;10663;42.714;23.274;2023-04-01T07:15:26;93539.88;;;15.54;46.94
21011;BME280;10663;42.714;23.274;2023-04-01T07:17:13;93550.47;;;14.95;48.19
21011;BME280;10663;42.714;23.274;2023-04-01T07:20:25;93545.81;;;15.21;47.86
21011;BME280;10663;42.714;23.274;2023-04-01T07:22:04;93550.81;;;14.85;49.33
21011;BME280;10663;42.714;23.274;2023-04-01T07:24:00;93555.16;;;15.07;48.35
21011;BME280;10663;42.714;23.274;2023-04-01T07:25:44;93557.91;;;14.81;49.01
21011;BME280;10663;42.714;23.274;2023-04-01T07:27:35;93532.25;;;15.06;48.83
21011;BME280;10663;42.714;23.274;2023-04-01T07:29:12;93531.56;;;14.79;49.69
21011;BME280;10663;42.714;23.274;2023-04-01T07:32:39;93556.75;;;14.09;52.16
21011;BME280;10663;42.714;23.274;2023-04-01T07:36:01;93559.03;;;14.71;51.08
21011;BME280;10663;42.714;23.274;2023-04-01T07:41:34;93556.91;;;14.94;50.26
21011;BME280;10663;42.714;23.274;2023-04-01T07:47:41;93544.94;;;15.09;50.04
21011;BME280;10663;42.714;23.274;2023-04-01T07:49:29;93535.28;;;14.95;50.61
21011;BME280;10663;42.714;23.274;2023-04-01T07:51:04;93538.19;;;14.73;50.95
21011;BME280;10663;42.714;23.274;2023-04-01T07:54:34;93545.06;;;15.12;50.37
21011;BME280;10663;42.714;23.274;2023-04-01T07:58:21;93533.41;;;14.87;50.46
21011;BME280;10663;42.714;23.274;2023-04-01T08:08:18;93524.91;;;14.30;54.04
21011;BME280;10663;42.714;23.274;2023-04-01T08:12:27;93506.28;;;14.47;52.60
21011;BME280;10663;42.714;23.274;2023-04-01T08:14:15;93509.06;;;14.59;52.71
21011;BME280;10663;42.714;23.274;2023-04-01T08:16:25;93515.91;;;15.16;51.15
21011;BME280;10663;42.714;23.274;2023-04-01T08:22:00;93495.03;;;15.89;49.03
21011;BME280;10663;42.714;23.274;2023-04-01T08:23:42;93492.63;;;15.96;48.92
21011;BME280;10663;42.714;23.274;2023-04-01T08:25:27;93485.47;;;15.88;49.05
21011;BME280;10663;42.714;23.274;2023-04-01T08:27:06;93482.78;;;16.21;48.57
21011;BME280;10663;42.714;23.274;2023-04-01T08:28:57;93486.31;;;16.00;49.04
21011;BME280;10663;42.714;23.274;2023-04-01T08:30:41;93472.06;;;16.41;47.96
21011;BME280;10663;42.714;23.274;2023-04-01T08:32:23;93477.19;;;16.79;47.25
21011;BME280;10663;42.714;23.274;2023-04-01T08:33:56;93464.00;;;16.62;47.68
21011;BME280;10663;42.714;23.274;2023-04-01T08:35:32;93448.31;;;16.97;46.89
21011;BME280;10663;42.714;23.274;2023-04-01T08:37:14;93448.50;;;16.56;47.52
21011;BME280;10663;42.714;23.274;2023-04-01T08:38:55;93448.94;;;16.58;48.43
21011;BME280;10663;42.714;23.274;2023-04-01T08:40:57;93440.25;;;16.61;48.18
21011;BME280;10663;42.714;23.274;2023-04-01T08:44:50;93426.53;;;16.50;49.01
21011;BME280;10663;42.714;23.274;2023-04-01T08:48:22;93415.38;;;16.93;47.80
21011;BME280;10663;42.714;23.274;2023-04-01T08:52:19;93383.66;;;17.72;44.95
21011;BME280;10663;42.714;23.274;2023-04-01T08:54:15;93394.03;;;18.17;43.00
21011;BME280;10663;42.714;23.274;2023-04-01T08:56:13;93401.50;;;17.95;41.57
21011;BME280;10663;42.714;23.274;2023-04-01T09:04:31;93419.03;;;18.37;39.73
21011;BME280;10663;42.714;23.274;2023-04-01T09:06:32;93416.25;;;17.89;41.21
21011;BME280;10663;42.714;23.274;2023-04-01T09:08:38;93413.56;;;17.74;40.31
21011;BME280;10663;42.714;23.274;2023-04-01T09:22:44;93398.63;;;18.16;39.18
21011;BME280;10663;42.714;23.274;2023-04-01T09:37:35;93378.28;;;18.15;39.96
21011;BME280;10663;42.714;23.274;2023-04-01T09:39:29;93373.47;;;18.37;39.33
21011;BME280;10663;42.714;23.274;2023-04-01T09:41:27;93349.38;;;18.37;39.36
21011;BME280;10663;42.714;23.274;2023-04-01T09:43:30;93345.47;;;18.34;38.93
21011;BME280;10663;42.714;23.274;2023-04-01T09:45:29;93343.41;;;18.12;39.64
21011;BME280;10663;42.714;23.274;2023-04-01T09:50:57;93357.31;;;18.80;38.93
21011;BME280;10663;42.714;23.274;2023-04-01T09:52:52;93345.00;;;18.95;37.98
21011;BME280;10663;42.714;23.274;2023-04-01T10:07:58;93318.44;;;18.90;38.11
21011;BME280;10663;42.714;23.274;2023-04-01T10:13:38;93307.53;;;18.98;34.46
21011;BME280;10663;42.714;23.274;2023-04-01T10:23:27;93287.63;;;19.19;31.84
21011;BME280;10663;42.714;23.274;2023-04-01T10:36:51;93255.22;;;19.27;34.77
21011;BME280;10663;42.714;23.274;2023-04-01T10:57:49;93251.50;;;18.78;36.83
21011;BME280;10663;42.714;23.274;2023-04-01T11:18:11;93249.00;;;17.71;39.23
21011;BME280;10663;42.714;23.274;2023-04-01T11:20:14;93255.13;;;17.72;39.41
21011;BME280;10663;42.714;23.274;2023-04-01T11:24:09;93259.03;;;17.74;38.19
21011;BME280;10663;42.714;23.274;2023-04-01T11:26:08;93282.84;;;17.64;38.57
21011;BME280;10663;42.714;23.274;2023-04-01T11:32:50;93311.25;;;17.40;40.28
21011;BME280;10663;42.714;23.274;2023-04-01T11:34:00;93335.72;;;17.27;40.46
21011;BME280;10663;42.714;23.274;2023-04-01T11:39:44;93400.06;;;15.67;56.00
21011;BME280;10663;42.714;23.274;2023-04-01T11:46:11;93501.84;;;11.81;86.13
21011;BME280;10663;42.714;23.274;2023-04-01T11:47:48;93507.94;;;11.46;90.38